sensor_id;sensor_type;location;lat;lon;timestamp;pressure;altitude;pressure_sealevel;temperature;humidity
28797;BME280;24974;54.444;18.560;2023-09-12T00:01:10;100929.34;;;21.73;64.01
28797;BME280;24974;54.444;18.560;2023-09-12T00:03:41;100920.44;;;21.64;64.53
28797;BME280;24974;54.444;18.560;2023-09-12T00:06:11;100930.78;;;21.60;64.26
28797;BME280;24974;54.444;18.560;2023-09-12T00:08:42;100934.88;;;21.66;64.18
28797;BME280;24974;54.444;18.560;2023-09-12T00:11:13;100927.38;;;21.47;64.82
28797;BME280;24974;54.444;18.560;2023-09-12T00:13:44;100932.28;;;21.54;64.43
28797;BME280;24974;54.444;18.560;2023-09-12T00:16:15;100932.47;;;21.68;63.73
28797;BME280;24974;54.444;18.560;2023-09-12T00:18:46;100934.81;;;21.63;64.50
28797;BME280;24974;54.444;18.560;2023-09-12T00:21:17;100927.97;;;21.60;64.05
28797;BME280;24974;54.444;18.560;2023-09-12T00:23:48;100931.78;;;21.48;64.54
28797;BME280;24974;54.444;18.560;2023-09-12T00:26:19;100926.97;;;21.45;65.06
28797;BME280;24974;54.444;18.560;2023-09-12T00:28:52;100925.13;;;21.57;64.47
28797;BME280;24974;54.444;18.560;2023-09-12T00:31:23;100929.97;;;21.33;64.78
28797;BME280;24974;54.444;18.560;2023-09-12T00:33:53;100924.38;;;21.33;65.32
28797;BME280;24974;54.444;18.560;2023-09-12T00:36:24;100929.38;;;21.20;65.76
28797;BME280;24974;54.444;18.560;2023-09-12T00:38:55;100921.38;;;21.19;66.13
28797;BME280;24974;54.444;18.560;2023-09-12T00:41:26;100923.97;;;21.31;65.48
28797;BME280;24974;54.444;18.560;2023-09-12T00:43:57;100914.66;;;20.74;67.39
28797;BME280;24974;54.444;18.560;2023-09-12T00:46:29;100923.66;;;21.36;65.43
28797;BME280;24974;54.444;18.560;2023-09-12T00:49:01;100918.63;;;21.49;64.93
28797;BME280;24974;54.444;18.560;2023-09-12T00:51:34;100928.91;;;21.41;65.25
28797;BME280;24974;54.444;18.560;2023-09-12T00:54:06;100919.94;;;21.29;65.28
28797;BME280;24974;54.444;18.560;2023-09-12T00:56:37;100914.75;;;21.04;66.39
28797;BME280;24974;54.444;18.560;2023-09-12T00:59:10;100917.28;;;21.66;64.38
28797;BME280;24974;54.444;18.560;2023-09-12T01:01:41;100911.03;;;21.79;63.84
28797;BME280;24974;54.444;18.560;2023-09-12T01:04:12;100914.03;;;21.34;65.33
28797;BME280;24974;54.444;18.560;2023-09-12T01:06:43;100910.59;;;21.74;64.02
28797;BME280;24974;54.444;18.560;2023-09-12T01:09:15;100906.53;;;21.71;64.09
28797;BME280;24974;54.444;18.560;2023-09-12T01:11:46;100910.41;;;21.93;63.43
28797;BME280;24974;54.444;18.560;2023-09-12T01:14:17;100909.09;;;21.84;63.68
28797;BME280;24974;54.444;18.560;2023-09-12T01:16:48;100910.09;;;21.68;63.81
28797;BME280;24974;54.444;18.560;2023-09-12T01:19:19;100909.91;;;21.54;64.31
28797;BME280;24974;54.444;18.560;2023-09-12T01:22:10;100904.63;;;21.49;64.78
28797;BME280;24974;54.444;18.560;2023-09-12T01:25:08;100908.72;;;21.55;64.66
28797;BME280;24974;54.444;18.560;2023-09-12T01:27:42;100916.03;;;21.63;64.05
28797;BME280;24974;54.444;18.560;2023-09-12T01:30:18;100920.16;;;21.43;65.05
28797;BME280;24974;54.444;18.560;2023-09-12T01:32:52;100916.00;;;21.60;64.19
28797;BME280;24974;54.444;18.560;2023-09-12T01:35:23;100913.03;;;21.49;63.96
28797;BME280;24974;54.444;18.560;2023-09-12T01:37:54;100912.78;;;21.58;64.24
28797;BME280;24974;54.444;18.560;2023-09-12T01:40:42;100912.13;;;21.71;64.12
28797;BME280;24974;54.444;18.560;2023-09-12T01:43:17;100911.53;;;21.55;64.96
28797;BME280;24974;54.444;18.560;2023-09-12T01:45:51;100916.09;;;21.67;64.18
28797;BME280;24974;54.444;18.560;2023-09-12T01:48:28;100920.06;;;21.66;64.24
28797;BME280;24974;54.444;18.560;2023-09-12T01:51:05;100919.41;;;21.76;63.59
28797;BME280;24974;54.444;18.560;2023-09-12T01:53:37;100919.44;;;21.79;63.99
28797;BME280;24974;54.444;18.560;2023-09-12T01:56:09;100914.09;;;21.67;63.86
28797;BME280;24974;54.444;18.560;2023-09-12T01:58:41;100915.13;;;21.86;62.90
28797;BME280;24974;54.444;18.560;2023-09-12T02:01:12;100922.22;;;21.79;63.13
28797;BME280;24974;54.444;18.560;2023-09-12T02:03:43;100915.09;;;21.82;63.44
28797;BME280;24974;54.444;18.560;2023-09-12T02:06:14;100921.28;;;21.98;62.69
28797;BME280;24974;54.444;18.560;2023-09-12T02:08:45;100911.34;;;22.04;62.70
28797;BME280;24974;54.444;18.560;2023-09-12T02:11:16;100909.72;;;22.03;62.41
28797;BME280;24974;54.444;18.560;2023-09-12T02:13:47;100906.72;;;21.86;63.18
28797;BME280;24974;54.444;18.560;2023-09-12T02:16:18;100909.66;;;21.96;62.60
28797;BME280;24974;54.444;18.560;2023-09-12T02:18:49;100910.84;;;21.65;63.92
28797;BME280;24974;54.444;18.560;2023-09-12T02:21:20;100912.28;;;21.52;64.41
28797;BME280;24974;54.444;18.560;2023-09-12T02:23:51;100915.50;;;21.84;63.17
28797;BME280;24974;54.444;18.560;2023-09-12T02:26:23;100905.44;;;21.79;63.21
28797;BME280;24974;54.444;18.560;2023-09-12T02:28:55;100914.53;;;21.73;63.28
28797;BME280;24974;54.444;18.560;2023-09-12T02:31:26;100914.84;;;21.64;63.32
28797;BME280;24974;54.444;18.560;2023-09-12T02:33:57;100908.63;;;21.78;62.85
28797;BME280;24974;54.444;18.560;2023-09-12T02:36:29;100906.09;;;21.66;63.26
28797;BME280;24974;54.444;18.560;2023-09-12T02:39:00;100910.09;;;21.68;63.11
28797;BME280;24974;54.444;18.560;2023-09-12T02:41:30;100909.97;;;21.58;63.96
28797;BME280;24974;54.444;18.560;2023-09-12T02:44:01;100911.31;;;21.67;63.20
28797;BME280;24974;54.444;18.560;2023-09-12T02:46:33;100909.00;;;21.76;63.49
28797;BME280;24974;54.444;18.560;2023-09-12T02:49:04;100911.00;;;21.19;65.17
28797;BME280;24974;54.444;18.560;2023-09-12T02:51:38;100907.72;;;21.70;63.62
28797;BME280;24974;54.444;18.560;2023-09-12T02:54:10;100912.16;;;22.05;62.68
28797;BME280;24974;54.444;18.560;2023-09-12T02:56:41;100913.84;;;21.79;63.20
28797;BME280;24974;54.444;18.560;2023-09-12T02:59:12;100914.69;;;21.84;62.92
28797;BME280;24974;54.444;18.560;2023-09-12T03:01:43;100902.44;;;21.95;62.85
28797;BME280;24974;54.444;18.560;2023-09-12T03:04:14;100903.13;;;21.55;64.10
28797;BME280;24974;54.444;18.560;2023-09-12T03:06:45;100906.97;;;21.73;63.14
28797;BME280;24974;54.444;18.560;2023-09-12T03:09:16;100911.41;;;21.74;63.24
28797;BME280;24974;54.444;18.560;2023-09-12T03:11:49;100907.22;;;21.95;62.70
28797;BME280;24974;54.444;18.560;2023-09-12T03:14:21;100909.41;;;21.75;63.26
28797;BME280;24974;54.444;18.560;2023-09-12T03:16:51;100914.72;;;21.87;62.63
28797;BME280;24974;54.444;18.560;2023-09-12T03:19:22;100916.44;;;21.65;63.15
28797;BME280;24974;54.444;18.560;2023-09-12T03:21:53;100915.59;;;21.61;63.10
28797;BME280;24974;54.444;18.560;2023-09-12T03:24:24;100912.50;;;21.66;63.15
28797;BME280;24974;54.444;18.560;2023-09-12T03:26:56;100910.91;;;21.69;63.00
28797;BME280;24974;54.444;18.560;2023-09-12T03:29:27;100905.69;;;21.37;63.97
28797;BME280;24974;54.444;18.560;2023-09-12T03:31:57;100910.19;;;21.45;63.66
28797;BME280;24974;54.444;18.560;2023-09-12T03:34:29;100906.72;;;21.56;63.49
28797;BME280;24974;54.444;18.560;2023-09-12T03:37:00;100909.31;;;21.41;63.97
28797;BME280;24974;54.444;18.560;2023-09-12T03:39:31;100905.44;;;21.23;64.72
28797;BME280;24974;54.444;18.560;2023-09-12T03:42:02;100903.59;;;21.31;63.95
28797;BME280;24974;54.444;18.560;2023-09-12T03:44:33;100904.13;;;21.40;64.10
28797;BME280;24974;54.444;18.560;2023-09-12T03:47:04;100916.44;;;21.35;63.90
28797;BME280;24974;54.444;18.560;2023-09-12T03:49:35;100910.91;;;21.39;64.09
28797;BME280;24974;54.444;18.560;2023-09-12T03:52:06;100909.81;;;21.20;64.34
28797;BME280;24974;54.444;18.560;2023-09-12T03:54:37;100908.09;;;21.39;64.02
28797;BME280;24974;54.444;18.560;2023-09-12T03:57:08;100916.75;;;21.30;63.93
28797;BME280;24974;54.444;18.560;2023-09-12T03:59:39;100908.25;;;21.23;64.26
28797;BME280;24974;54.444;18.560;2023-09-12T04:02:10;100910.97;;;21.42;63.72
28797;BME280;24974;54.444;18.560;2023-09-12T04:04:41;100909.81;;;21.47;63.47
28797;BME280;24974;54.444;18.560;2023-09-12T04:07:12;100905.03;;;21.21;64.09
28797;BME280;24974;54.444;18.560;2023-09-12T04:09:43;100905.44;;;21.23;64.20
28797;BME280;24974;54.444;18.560;2023-09-12T04:12:14;100910.22;;;20.96;64.57
28797;BME280;24974;54.444;18.560;2023-09-12T04:14:45;100906.75;;;21.29;64.03
28797;BME280;24974;54.444;18.560;2023-09-12T04:17:16;100915.69;;;21.38;63.27
28797;BME280;24974;54.444;18.560;2023-09-12T04:19:47;100914.34;;;21.29;63.96
28797;BME280;24974;54.444;18.560;2023-09-12T04:22:18;100899.41;;;21.44;63.02
28797;BME280;24974;54.444;18.560;2023-09-12T04:24:50;100895.78;;;21.43;63.22
28797;BME280;24974;54.444;18.560;2023-09-12T04:27:20;100893.84;;;21.47;63.19
28797;BME280;24974;54.444;18.560;2023-09-12T04:29:51;100892.31;;;21.54;62.74
28797;BME280;24974;54.444;18.560;2023-09-12T04:32:22;100894.88;;;21.36;63.04
28797;BME280;24974;54.444;18.560;2023-09-12T04:34:54;100889.91;;;21.52;62.94
28797;BME280;24974;54.444;18.560;2023-09-12T04:37:25;100892.63;;;21.45;62.88
28797;BME280;24974;54.444;18.560;2023-09-12T04:39:56;100899.28;;;21.37;63.67
28797;BME280;24974;54.444;18.560;2023-09-12T04:42:28;100896.41;;;21.60;62.99
28797;BME280;24974;54.444;18.560;2023-09-12T04:44:59;100897.94;;;21.54;63.32
28797;BME280;24974;54.444;18.560;2023-09-12T04:47:30;100887.75;;;21.72;62.67
28797;BME280;24974;54.444;18.560;2023-09-12T04:50:01;100884.84;;;21.61;63.17
28797;BME280;24974;54.444;18.560;2023-09-12T04:52:33;100889.91;;;21.82;62.30
28797;BME280;24974;54.444;18.560;2023-09-12T04:55:04;100891.16;;;21.88;62.16
28797;BME280;24974;54.444;18.560;2023-09-12T04:57:35;100893.31;;;22.02;61.85
28797;BME280;24974;54.444;18.560;2023-09-12T05:00:06;100901.94;;;22.20;61.00
28797;BME280;24974;54.444;18.560;2023-09-12T05:02:38;100892.44;;;22.28;60.99
28797;BME280;24974;54.444;18.560;2023-09-12T05:05:09;100896.09;;;22.32;60.83
28797;BME280;24974;54.444;18.560;2023-09-12T05:07:40;100887.78;;;22.39;60.48
28797;BME280;24974;54.444;18.560;2023-09-12T05:10:12;100902.25;;;22.48;60.48
28797;BME280;24974;54.444;18.560;2023-09-12T05:12:42;100895.88;;;22.51;60.51
28797;BME280;24974;54.444;18.560;2023-09-12T05:15:13;100903.56;;;22.61;60.18
28797;BME280;24974;54.444;18.560;2023-09-12T05:17:44;100904.31;;;22.55;59.97
28797;BME280;24974;54.444;18.560;2023-09-12T05:20:15;100899.28;;;22.30;61.08
28797;BME280;24974;54.444;18.560;2023-09-12T05:22:46;100904.66;;;22.91;59.84
28797;BME280;24974;54.444;18.560;2023-09-12T05:25:16;100904.38;;;23.06;58.87
28797;BME280;24974;54.444;18.560;2023-09-12T05:27:47;100908.38;;;23.09;58.59
28797;BME280;24974;54.444;18.560;2023-09-12T05:30:18;100909.50;;;22.97;59.41
28797;BME280;24974;54.444;18.560;2023-09-12T05:32:49;100913.41;;;23.40;58.42
28797;BME280;24974;54.444;18.560;2023-09-12T05:35:20;100912.59;;;23.36;58.29
28797;BME280;24974;54.444;18.560;2023-09-12T05:37:51;100904.75;;;23.63;57.71
28797;BME280;24974;54.444;18.560;2023-09-12T05:40:23;100899.06;;;23.56;58.12
28797;BME280;24974;54.444;18.560;2023-09-12T05:42:54;100902.22;;;23.48;58.48
28797;BME280;24974;54.444;18.560;2023-09-12T05:45:25;100898.03;;;23.82;56.62
28797;BME280;24974;54.444;18.560;2023-09-12T05:47:56;100901.34;;;24.16;55.75
28797;BME280;24974;54.444;18.560;2023-09-12T05:50:27;100899.47;;;24.74;54.53
28797;BME280;24974;54.444;18.560;2023-09-12T05:52:58;100903.06;;;24.74;54.80
28797;BME280;24974;54.444;18.560;2023-09-12T05:55:31;100903.06;;;24.85;54.49
28797;BME280;24974;54.444;18.560;2023-09-12T05:58:02;100905.09;;;24.95;54.58
28797;BME280;24974;54.444;18.560;2023-09-12T06:00:37;100913.88;;;24.40;56.22
28797;BME280;24974;54.444;18.560;2023-09-12T06:03:08;100921.53;;;24.75;55.53
28797;BME280;24974;54.444;18.560;2023-09-12T06:05:39;100910.31;;;25.15;52.77
28797;BME280;24974;54.444;18.560;2023-09-12T06:08:09;100906.22;;;25.48;50.78
28797;BME280;24974;54.444;18.560;2023-09-12T06:10:41;100913.09;;;25.32;51.73
28797;BME280;24974;54.444;18.560;2023-09-12T06:13:12;100909.91;;;24.95;51.98
28797;BME280;24974;54.444;18.560;2023-09-12T06:15:43;100908.66;;;25.46;50.46
28797;BME280;24974;54.444;18.560;2023-09-12T06:18:14;100903.47;;;25.23;50.79
28797;BME280;24974;54.444;18.560;2023-09-12T06:20:44;100902.59;;;25.54;50.30
28797;BME280;24974;54.444;18.560;2023-09-12T06:23:15;100908.66;;;25.38;49.98
28797;BME280;24974;54.444;18.560;2023-09-12T06:25:46;100908.13;;;25.86;49.18
28797;BME280;24974;54.444;18.560;2023-09-12T06:28:28;100907.44;;;25.47;50.31
28797;BME280;24974;54.444;18.560;2023-09-12T06:30:59;100912.19;;;25.78;49.09
28797;BME280;24974;54.444;18.560;2023-09-12T06:33:30;100897.91;;;26.17;47.91
28797;BME280;24974;54.444;18.560;2023-09-12T06:36:01;100906.38;;;26.17;47.82
28797;BME280;24974;54.444;18.560;2023-09-12T06:38:33;100904.66;;;26.90;46.64
28797;BME280;24974;54.444;18.560;2023-09-12T06:41:04;100905.63;;;27.21;45.95
28797;BME280;24974;54.444;18.560;2023-09-12T06:43:34;100904.94;;;27.47;45.44
28797;BME280;24974;54.444;18.560;2023-09-12T06:46:05;100904.66;;;27.35;45.28
28797;BME280;24974;54.444;18.560;2023-09-12T06:48:36;100908.34;;;26.83;45.88
28797;BME280;24974;54.444;18.560;2023-09-12T06:51:09;100903.84;;;27.38;45.44
28797;BME280;24974;54.444;18.560;2023-09-12T06:53:40;100910.78;;;27.29;45.85
28797;BME280;24974;54.444;18.560;2023-09-12T06:56:10;100909.19;;;27.63;45.84
28797;BME280;24974;54.444;18.560;2023-09-12T06:58:41;100905.94;;;27.98;45.12
28797;BME280;24974;54.444;18.560;2023-09-12T07:01:12;100908.38;;;28.30;43.52
28797;BME280;24974;54.444;18.560;2023-09-12T07:03:43;100912.53;;;27.92;43.89
28797;BME280;24974;54.444;18.560;2023-09-12T07:06:14;100919.69;;;28.00;44.14
28797;BME280;24974;54.444;18.560;2023-09-12T07:08:45;100913.19;;;27.99;44.71
28797;BME280;24974;54.444;18.560;2023-09-12T07:11:16;100907.25;;;28.51;42.66
28797;BME280;24974;54.444;18.560;2023-09-12T07:13:46;100908.06;;;28.52;43.22
28797;BME280;24974;54.444;18.560;2023-09-12T07:16:17;100910.28;;;28.64;42.23
28797;BME280;24974;54.444;18.560;2023-09-12T07:18:48;100911.19;;;28.30;43.94
28797;BME280;24974;54.444;18.560;2023-09-12T07:21:20;100907.50;;;29.11;42.17
28797;BME280;24974;54.444;18.560;2023-09-12T07:23:51;100912.97;;;28.17;44.11
28797;BME280;24974;54.444;18.560;2023-09-12T07:26:22;100910.97;;;28.72;42.34
28797;BME280;24974;54.444;18.560;2023-09-12T07:28:53;100908.69;;;29.13;41.94
28797;BME280;24974;54.444;18.560;2023-09-12T07:31:24;100915.41;;;28.73;42.53
28797;BME280;24974;54.444;18.560;2023-09-12T07:33:55;100908.66;;;29.37;41.73
28797;BME280;24974;54.444;18.560;2023-09-12T07:36:26;100912.13;;;27.90;44.24
28797;BME280;24974;54.444;18.560;2023-09-12T07:38:57;100908.28;;;28.88;41.86
28797;BME280;24974;54.444;18.560;2023-09-12T07:41:28;100904.41;;;29.25;41.17
28797;BME280;24974;54.444;18.560;2023-09-12T07:43:59;100913.19;;;29.31;41.79
28797;BME280;24974;54.444;18.560;2023-09-12T07:46:31;100915.88;;;29.61;41.05
28797;BME280;24974;54.444;18.560;2023-09-12T07:49:02;100917.59;;;30.15;40.00
28797;BME280;24974;54.444;18.560;2023-09-12T07:51:33;100918.00;;;30.17;39.62
28797;BME280;24974;54.444;18.560;2023-09-12T07:54:04;100927.53;;;30.59;39.37
28797;BME280;24974;54.444;18.560;2023-09-12T07:56:35;100922.66;;;30.59;39.25
28797;BME280;24974;54.444;18.560;2023-09-12T07:59:06;100913.56;;;30.68;38.93
28797;BME280;24974;54.444;18.560;2023-09-12T08:01:36;100914.47;;;30.81;38.82
28797;BME280;24974;54.444;18.560;2023-09-12T08:04:07;100915.44;;;30.75;39.41
28797;BME280;24974;54.444;18.560;2023-09-12T08:06:38;100922.22;;;31.10;39.17
28797;BME280;24974;54.444;18.560;2023-09-12T08:09:09;100925.34;;;30.99;38.63
28797;BME280;24974;54.444;18.560;2023-09-12T08:11:43;100934.53;;;31.36;38.05
28797;BME280;24974;54.444;18.560;2023-09-12T08:14:14;100931.88;;;31.45;38.07
28797;BME280;24974;54.444;18.560;2023-09-12T08:16:45;100925.25;;;30.86;37.80
28797;BME280;24974;54.444;18.560;2023-09-12T08:19:15;100930.03;;;30.21;37.67
28797;BME280;24974;54.444;18.560;2023-09-12T08:21:46;100935.69;;;29.81;39.18
28797;BME280;24974;54.444;18.560;2023-09-12T08:24:17;100937.44;;;29.75;39.67
28797;BME280;24974;54.444;18.560;2023-09-12T08:26:48;100932.97;;;31.64;36.65
28797;BME280;24974;54.444;18.560;2023-09-12T08:29:20;100942.78;;;32.05;36.00
28797;BME280;24974;54.444;18.560;2023-09-12T08:31:51;100940.47;;;31.87;35.70
28797;BME280;24974;54.444;18.560;2023-09-12T08:34:23;100937.03;;;31.34;36.51
28797;BME280;24974;54.444;18.560;2023-09-12T08:36:54;100942.22;;;32.10;35.65
28797;BME280;24974;54.444;18.560;2023-09-12T08:39:26;100941.81;;;31.53;36.71
28797;BME280;24974;54.444;18.560;2023-09-12T08:41:59;100941.22;;;31.13;36.39
28797;BME280;24974;54.444;18.560;2023-09-12T08:44:30;100937.06;;;31.01;37.04
28797;BME280;24974;54.444;18.560;2023-09-12T08:47:01;100937.88;;;31.76;35.27
28797;BME280;24974;54.444;18.560;2023-09-12T08:49:35;100942.50;;;32.53;34.13
28797;BME280;24974;54.444;18.560;2023-09-12T08:52:06;100942.75;;;32.34;35.59
28797;BME280;24974;54.444;18.560;2023-09-12T08:54:37;100942.91;;;32.14;34.66
28797;BME280;24974;54.444;18.560;2023-09-12T08:57:10;100940.97;;;33.12;32.96
28797;BME280;24974;54.444;18.560;2023-09-12T08:59:43;100943.84;;;31.53;35.54
28797;BME280;24974;54.444;18.560;2023-09-12T09:02:15;100944.06;;;32.29;34.38
28797;BME280;24974;54.444;18.560;2023-09-12T09:04:47;100936.38;;;31.88;35.01
28797;BME280;24974;54.444;18.560;2023-09-12T09:07:20;100937.28;;;32.52;34.41
28797;BME280;24974;54.444;18.560;2023-09-12T09:09:52;100937.88;;;33.89;32.87
28797;BME280;24974;54.444;18.560;2023-09-12T09:12:27;100943.00;;;33.37;32.64
28797;BME280;24974;54.444;18.560;2023-09-12T09:14:58;100948.34;;;33.70;33.23
28797;BME280;24974;54.444;18.560;2023-09-12T09:17:30;100950.75;;;33.24;35.38
28797;BME280;24974;54.444;18.560;2023-09-12T09:20:01;100942.09;;;34.06;34.44
28797;BME280;24974;54.444;18.560;2023-09-12T09:22:32;100947.97;;;32.73;37.00
28797;BME280;24974;54.444;18.560;2023-09-12T09:25:10;100932.09;;;33.80;34.85
28797;BME280;24974;54.444;18.560;2023-09-12T09:27:42;100932.50;;;34.44;33.89
28797;BME280;24974;54.444;18.560;2023-09-12T09:30:13;100932.94;;;34.11;34.79
28797;BME280;24974;54.444;18.560;2023-09-12T09:32:44;100931.16;;;34.58;33.81
28797;BME280;24974;54.444;18.560;2023-09-12T09:35:16;100927.97;;;34.65;33.52
28797;BME280;24974;54.444;18.560;2023-09-12T09:37:46;100922.25;;;34.65;33.99
28797;BME280;24974;54.444;18.560;2023-09-12T09:40:17;100928.25;;;34.17;34.72
28797;BME280;24974;54.444;18.560;2023-09-12T09:43:02;100924.97;;;34.28;34.57
28797;BME280;24974;54.444;18.560;2023-09-12T09:45:42;100925.28;;;34.61;34.24
28797;BME280;24974;54.444;18.560;2023-09-12T09:48:21;100926.69;;;34.57;34.02
28797;BME280;24974;54.444;18.560;2023-09-12T09:50:53;100922.94;;;35.46;33.27
28797;BME280;24974;54.444;18.560;2023-09-12T09:53:27;100920.22;;;35.70;32.70
28797;BME280;24974;54.444;18.560;2023-09-12T09:56:13;100921.13;;;34.53;34.16
28797;BME280;24974;54.444;18.560;2023-09-12T09:58:51;100913.34;;;35.12;33.16
28797;BME280;24974;54.444;18.560;2023-09-12T10:01:29;100918.03;;;36.25;31.09
28797;BME280;24974;54.444;18.560;2023-09-12T10:04:01;100916.88;;;37.31;29.59
28797;BME280;24974;54.444;18.560;2023-09-12T10:06:35;100912.22;;;36.01;31.72
28797;BME280;24974;54.444;18.560;2023-09-12T10:09:11;100907.19;;;36.38;31.42
28797;BME280;24974;54.444;18.560;2023-09-12T10:11:44;100906.56;;;36.44;28.60
28797;BME280;24974;54.444;18.560;2023-09-12T10:14:19;100902.97;;;37.15;27.51
28797;BME280;24974;54.444;18.560;2023-09-12T10:16:50;100900.69;;;36.38;31.05
28797;BME280;24974;54.444;18.560;2023-09-12T10:19:26;100904.63;;;35.07;28.14
28797;BME280;24974;54.444;18.560;2023-09-12T10:22:08;100899.09;;;34.22;27.28
28797;BME280;24974;54.444;18.560;2023-09-12T10:24:40;100893.06;;;36.35;28.57
28797;BME280;24974;54.444;18.560;2023-09-12T10:27:13;100898.56;;;37.82;28.63
28797;BME280;24974;54.444;18.560;2023-09-12T10:29:45;100890.72;;;36.15;31.86
28797;BME280;24974;54.444;18.560;2023-09-12T10:32:19;100886.56;;;36.25;31.58
28797;BME280;24974;54.444;18.560;2023-09-12T10:34:53;100890.63;;;36.00;26.78
28797;BME280;24974;54.444;18.560;2023-09-12T10:37:26;100894.38;;;36.15;24.27
28797;BME280;24974;54.444;18.560;2023-09-12T10:39:58;100882.16;;;37.05;24.73
28797;BME280;24974;54.444;18.560;2023-09-12T10:42:32;100887.00;;;36.42;27.02
28797;BME280;24974;54.444;18.560;2023-09-12T10:45:05;100866.72;;;36.22;26.83
28797;BME280;24974;54.444;18.560;2023-09-12T10:47:38;100867.53;;;38.80;21.59
28797;BME280;24974;54.444;18.560;2023-09-12T10:50:09;100874.69;;;39.78;21.16
28797;BME280;24974;54.444;18.560;2023-09-12T10:52:40;100871.88;;;39.37;19.93
28797;BME280;24974;54.444;18.560;2023-09-12T10:55:18;100865.53;;;39.27;21.82
28797;BME280;24974;54.444;18.560;2023-09-12T10:58:03;100871.38;;;39.38;23.67
28797;BME280;24974;54.444;18.560;2023-09-12T11:00:34;100863.44;;;39.54;25.63
28797;BME280;24974;54.444;18.560;2023-09-12T11:05:57;100873.59;;;37.44;29.73
28797;BME280;24974;54.444;18.560;2023-09-12T11:08:28;100865.59;;;38.57;28.50
28797;BME280;24974;54.444;18.560;2023-09-12T11:11:17;100865.00;;;38.88;28.17
28797;BME280;24974;54.444;18.560;2023-09-12T11:14:03;100866.13;;;40.46;26.44
28797;BME280;24974;54.444;18.560;2023-09-12T11:16:35;100863.63;;;39.96;26.19
28797;BME280;24974;54.444;18.560;2023-09-12T11:21:49;100871.84;;;39.83;25.75
28797;BME280;24974;54.444;18.560;2023-09-12T11:24:20;100866.31;;;39.54;26.75
28797;BME280;24974;54.444;18.560;2023-09-12T11:26:59;100873.59;;;38.32;28.90
28797;BME280;24974;54.444;18.560;2023-09-12T11:29:36;100870.94;;;41.20;25.59
28797;BME280;24974;54.444;18.560;2023-09-12T11:32:07;100878.72;;;40.54;26.43
28797;BME280;24974;54.444;18.560;2023-09-12T11:34:43;100877.69;;;39.63;27.45
28797;BME280;24974;54.444;18.560;2023-09-12T11:37:36;100878.28;;;40.67;26.39
28797;BME280;24974;54.444;18.560;2023-09-12T11:42:43;100864.38;;;39.19;28.32
28797;BME280;24974;54.444;18.560;2023-09-12T11:45:20;100868.97;;;39.11;28.45
28797;BME280;24974;54.444;18.560;2023-09-12T11:47:52;100873.34;;;40.79;26.28
28797;BME280;24974;54.444;18.560;2023-09-12T11:53:00;100870.72;;;41.29;25.45
28797;BME280;24974;54.444;18.560;2023-09-12T11:55:43;100871.88;;;40.46;25.79
28797;BME280;24974;54.444;18.560;2023-09-12T11:58:16;100867.16;;;40.12;27.13
28797;BME280;24974;54.444;18.560;2023-09-12T12:00:52;100871.50;;;40.33;26.41
28797;BME280;24974;54.444;18.560;2023-09-12T12:03:25;100869.19;;;41.51;24.98
28797;BME280;24974;54.444;18.560;2023-09-12T12:05:56;100862.56;;;41.28;24.39
28797;BME280;24974;54.444;18.560;2023-09-12T12:08:28;100862.28;;;41.20;24.45
28797;BME280;24974;54.444;18.560;2023-09-12T12:10:59;100867.38;;;41.64;24.18
28797;BME280;24974;54.444;18.560;2023-09-12T12:13:30;100862.63;;;41.33;24.73
28797;BME280;24974;54.444;18.560;2023-09-12T12:16:17;100869.72;;;41.44;23.57
28797;BME280;24974;54.444;18.560;2023-09-12T12:18:48;100863.16;;;41.49;24.15
28797;BME280;24974;54.444;18.560;2023-09-12T12:21:19;100867.75;;;40.59;25.37
28797;BME280;24974;54.444;18.560;2023-09-12T12:23:58;100877.66;;;41.88;24.17
28797;BME280;24974;54.444;18.560;2023-09-12T12:26:33;100870.38;;;41.11;25.19
28797;BME280;24974;54.444;18.560;2023-09-12T12:29:04;100863.50;;;41.73;24.20
28797;BME280;24974;54.444;18.560;2023-09-12T12:31:36;100863.94;;;41.44;24.51
28797;BME280;24974;54.444;18.560;2023-09-12T12:34:07;100873.38;;;40.42;25.54
28797;BME280;24974;54.444;18.560;2023-09-12T12:36:41;100867.91;;;40.44;25.42
28797;BME280;24974;54.444;18.560;2023-09-12T12:39:13;100873.03;;;41.20;24.72
28797;BME280;24974;54.444;18.560;2023-09-12T12:41:45;100867.47;;;41.05;24.99
28797;BME280;24974;54.444;18.560;2023-09-12T12:44:16;100865.38;;;41.05;24.38
28797;BME280;24974;54.444;18.560;2023-09-12T12:46:52;100863.31;;;41.23;24.49
28797;BME280;24974;54.444;18.560;2023-09-12T12:49:23;100855.25;;;41.38;24.12
28797;BME280;24974;54.444;18.560;2023-09-12T12:51:55;100863.06;;;39.40;26.10
28797;BME280;24974;54.444;18.560;2023-09-12T12:54:32;100864.63;;;40.25;26.06
28797;BME280;24974;54.444;18.560;2023-09-12T12:57:06;100866.31;;;41.51;23.99
28797;BME280;24974;54.444;18.560;2023-09-12T12:59:37;100862.06;;;40.70;25.15
28797;BME280;24974;54.444;18.560;2023-09-12T13:02:09;100857.56;;;41.17;25.08
28797;BME280;24974;54.444;18.560;2023-09-12T13:04:40;100853.19;;;40.79;25.48
28797;BME280;24974;54.444;18.560;2023-09-12T13:07:11;100841.59;;;39.93;26.60
28797;BME280;24974;54.444;18.560;2023-09-12T13:09:42;100846.47;;;40.50;26.13
28797;BME280;24974;54.444;18.560;2023-09-12T13:12:12;100845.50;;;40.22;26.21
28797;BME280;24974;54.444;18.560;2023-09-12T13:14:44;100850.47;;;41.18;24.99
28797;BME280;24974;54.444;18.560;2023-09-12T13:17:15;100854.41;;;41.21;24.92